sensor_id;sensor_type;location;lat;lon;timestamp;temperature;humidity
73586;DHT22;61865;50.232;18.614;2023-03-12T00:02:19;-1.20;99.90
73586;DHT22;61865;50.232;18.614;2023-03-12T00:04:41;-1.20;99.90
73586;DHT22;61865;50.232;18.614;2023-03-12T00:07:03;-1.30;99.90
73586;DHT22;61865;50.232;18.614;2023-03-12T00:09:26;-1.30;99.90
73586;DHT22;61865;50.232;18.614;2023-03-12T00:11:48;-1.40;99.90
73586;DHT22;61865;50.232;18.614;2023-03-12T00:14:10;-1.40;99.90
73586;DHT22;61865;50.232;18.614;2023-03-12T00:16:32;-1.40;99.90
73586;DHT22;61865;50.232;18.614;2023-03-12T00:18:55;-1.50;99.90
73586;DHT22;61865;50.232;18.614;2023-03-12T00:21:18;-1.50;99.90
73586;DHT22;61865;50.232;18.614;2023-03-12T00:23:40;-1.50;99.90
73586;DHT22;61865;50.232;18.614;2023-03-12T00:26:04;-1.50;99.90
73586;DHT22;61865;50.232;18.614;2023-03-12T00:28:26;-1.60;99.90
73586;DHT22;61865;50.232;18.614;2023-03-12T00:30:48;-1.70;99.90
73586;DHT22;61865;50.232;18.614;2023-03-12T00:33:12;-1.70;99.90
73586;DHT22;61865;50.232;18.614;2023-03-12T00:35:36;-1.80;99.90
73586;DHT22;61865;50.232;18.614;2023-03-12T00:37:58;-1.80;99.90
73586;DHT22;61865;50.232;18.614;2023-03-12T00:40:20;-1.80;99.90
73586;DHT22;61865;50.232;18.614;2023-03-12T00:42:42;-1.90;99.90
73586;DHT22;61865;50.232;18.614;2023-03-12T00:45:05;-1.90;99.90
73586;DHT22;61865;50.232;18.614;2023-03-12T00:47:27;-1.90;99.90
73586;DHT22;61865;50.232;18.614;2023-03-12T00:49:49;-1.90;99.90
73586;DHT22;61865;50.232;18.614;2023-03-12T00:52:12;-1.90;99.90
73586;DHT22;61865;50.232;18.614;2023-03-12T00:54:34;-1.90;99.90
73586;DHT22;61865;50.232;18.614;2023-03-12T00:56:56;-1.90;99.90
73586;DHT22;61865;50.232;18.614;2023-03-12T00:59:18;-2.00;99.90
73586;DHT22;61865;50.232;18.614;2023-03-12T01:01:40;-2.10;99.90
73586;DHT22;61865;50.232;18.614;2023-03-12T01:04:02;-2.10;99.90
73586;DHT22;61865;50.232;18.614;2023-03-12T01:06:25;-2.20;99.90
73586;DHT22;61865;50.232;18.614;2023-03-12T01:08:48;-2.20;99.90
73586;DHT22;61865;50.232;18.614;2023-03-12T01:11:12;-2.40;99.90
73586;DHT22;61865;50.232;18.614;2023-03-12T01:13:34;-2.40;99.90
73586;DHT22;61865;50.232;18.614;2023-03-12T01:15:55;-2.50;99.90
73586;DHT22;61865;50.232;18.614;2023-03-12T01:18:17;-2.60;99.90
73586;DHT22;61865;50.232;18.614;2023-03-12T01:20:40;-2.60;99.90
73586;DHT22;61865;50.232;18.614;2023-03-12T01:23:02;-2.60;99.90
73586;DHT22;61865;50.232;18.614;2023-03-12T01:25:25;-2.70;99.90
73586;DHT22;61865;50.232;18.614;2023-03-12T01:27:47;-2.80;99.90
73586;DHT22;61865;50.232;18.614;2023-03-12T01:30:10;-2.80;99.90
73586;DHT22;61865;50.232;18.614;2023-03-12T01:32:32;-2.80;99.90
73586;DHT22;61865;50.232;18.614;2023-03-12T01:34:54;-2.90;99.90
73586;DHT22;61865;50.232;18.614;2023-03-12T01:37:16;-2.90;99.90
73586;DHT22;61865;50.232;18.614;2023-03-12T01:39:38;-2.90;99.90
73586;DHT22;61865;50.232;18.614;2023-03-12T01:42:02;-2.90;99.90
73586;DHT22;61865;50.232;18.614;2023-03-12T01:44:24;-3.00;99.90
73586;DHT22;61865;50.232;18.614;2023-03-12T01:46:46;-3.00;99.90
73586;DHT22;61865;50.232;18.614;2023-03-12T01:49:10;-3.00;99.90
73586;DHT22;61865;50.232;18.614;2023-03-12T01:51:36;-3.00;99.90
73586;DHT22;61865;50.232;18.614;2023-03-12T01:54:07;-2.90;99.90
73586;DHT22;61865;50.232;18.614;2023-03-12T01:56:32;-2.80;99.90
73586;DHT22;61865;50.232;18.614;2023-03-12T01:59:00;-2.80;99.90
73586;DHT22;61865;50.232;18.614;2023-03-12T02:01:24;-2.80;99.90
73586;DHT22;61865;50.232;18.614;2023-03-12T02:03:47;-2.80;99.90
73586;DHT22;61865;50.232;18.614;2023-03-12T02:06:14;-2.80;99.90
73586;DHT22;61865;50.232;18.614;2023-03-12T02:08:38;-2.70;99.90
73586;DHT22;61865;50.232;18.614;2023-03-12T02:11:02;-2.60;99.90
73586;DHT22;61865;50.232;18.614;2023-03-12T02:13:24;-2.70;99.90
73586;DHT22;61865;50.232;18.614;2023-03-12T02:15:47;-2.70;99.90
73586;DHT22;61865;50.232;18.614;2023-03-12T02:18:12;-2.80;99.90
73586;DHT22;61865;50.232;18.614;2023-03-12T02:20:41;-2.80;99.90
73586;DHT22;61865;50.232;18.614;2023-03-12T02:23:09;-2.80;99.90
73586;DHT22;61865;50.232;18.614;2023-03-12T02:25:37;-2.70;99.90
73586;DHT22;61865;50.232;18.614;2023-03-12T02:28:02;-2.70;99.90
73586;DHT22;61865;50.232;18.614;2023-03-12T02:30:26;-2.70;99.90
73586;DHT22;61865;50.232;18.614;2023-03-12T02:32:49;-2.70;99.90
73586;DHT22;61865;50.232;18.614;2023-03-12T02:35:12;-2.70;99.90
73586;DHT22;61865;50.232;18.614;2023-03-12T02:37:35;-2.80;99.90
73586;DHT22;61865;50.232;18.614;2023-03-12T02:40:03;-2.80;99.90
73586;DHT22;61865;50.232;18.614;2023-03-12T02:42:27;-2.80;99.90
73586;DHT22;61865;50.232;18.614;2023-03-12T02:44:49;-2.90;99.90
73586;DHT22;61865;50.232;18.614;2023-03-12T02:47:11;-3.00;99.90
73586;DHT22;61865;50.232;18.614;2023-03-12T02:49:33;-3.00;99.90
73586;DHT22;61865;50.232;18.614;2023-03-12T02:51:56;-3.00;99.90
73586;DHT22;61865;50.232;18.614;2023-03-12T02:54:19;-3.00;99.90
73586;DHT22;61865;50.232;18.614;2023-03-12T02:56:41;-3.00;99.90
73586;DHT22;61865;50.232;18.614;2023-03-12T02:59:05;-3.10;99.90
73586;DHT22;61865;50.232;18.614;2023-03-12T03:01:27;-3.10;99.90
73586;DHT22;61865;50.232;18.614;2023-03-12T03:03:49;-3.20;99.90
73586;DHT22;61865;50.232;18.614;2023-03-12T03:06:11;-3.30;99.90
73586;DHT22;61865;50.232;18.614;2023-03-12T03:08:33;-3.30;99.90
73586;DHT22;61865;50.232;18.614;2023-03-12T03:10:55;-3.40;99.90
73586;DHT22;61865;50.232;18.614;2023-03-12T03:13:17;-3.30;99.90
73586;DHT22;61865;50.232;18.614;2023-03-12T03:15:41;-3.40;99.90
73586;DHT22;61865;50.232;18.614;2023-03-12T03:18:03;-3.40;99.90
73586;DHT22;61865;50.232;18.614;2023-03-12T03:20:25;-3.50;99.90
73586;DHT22;61865;50.232;18.614;2023-03-12T03:22:46;-3.50;99.90
73586;DHT22;61865;50.232;18.614;2023-03-12T03:25:09;-3.60;99.90
73586;DHT22;61865;50.232;18.614;2023-03-12T03:27:31;-3.60;99.90
73586;DHT22;61865;50.232;18.614;2023-03-12T03:29:53;-3.60;99.90
73586;DHT22;61865;50.232;18.614;2023-03-12T03:32:17;-3.60;99.90
73586;DHT22;61865;50.232;18.614;2023-03-12T03:34:38;-3.60;99.90
73586;DHT22;61865;50.232;18.614;2023-03-12T03:37:00;-3.60;99.90
73586;DHT22;61865;50.232;18.614;2023-03-12T03:39:22;-3.60;99.90
73586;DHT22;61865;50.232;18.614;2023-03-12T03:41:45;-3.50;99.90
73586;DHT22;61865;50.232;18.614;2023-03-12T03:44:07;-3.60;99.90
73586;DHT22;61865;50.232;18.614;2023-03-12T03:46:29;-3.50;99.90
73586;DHT22;61865;50.232;18.614;2023-03-12T03:48:52;-3.50;99.90
73586;DHT22;61865;50.232;18.614;2023-03-12T03:51:14;-3.60;99.90
73586;DHT22;61865;50.232;18.614;2023-03-12T03:53:36;-3.60;99.90
73586;DHT22;61865;50.232;18.614;2023-03-12T03:56:03;-3.50;99.90
73586;DHT22;61865;50.232;18.614;2023-03-12T03:58:25;-3.60;99.90
73586;DHT22;61865;50.232;18.614;2023-03-12T04:00:47;-3.60;99.90
73586;DHT22;61865;50.232;18.614;2023-03-12T04:03:09;-3.50;99.90
73586;DHT22;61865;50.232;18.614;2023-03-12T04:05:32;-3.50;99.90
73586;DHT22;61865;50.232;18.614;2023-03-12T04:07:55;-3.50;99.90
73586;DHT22;61865;50.232;18.614;2023-03-12T04:10:17;-3.40;99.90
73586;DHT22;61865;50.232;18.614;2023-03-12T04:12:39;-3.40;99.90
73586;DHT22;61865;50.232;18.614;2023-03-12T04:15:01;-3.30;99.90
73586;DHT22;61865;50.232;18.614;2023-03-12T04:17:23;-3.30;99.90
73586;DHT22;61865;50.232;18.614;2023-03-12T04:19:45;-3.30;99.90
73586;DHT22;61865;50.232;18.614;2023-03-12T04:22:08;-3.30;99.90
73586;DHT22;61865;50.232;18.614;2023-03-12T04:24:30;-3.30;99.90
73586;DHT22;61865;50.232;18.614;2023-03-12T04:26:52;-3.30;99.90
73586;DHT22;61865;50.232;18.614;2023-03-12T04:29:14;-3.30;99.90
73586;DHT22;61865;50.232;18.614;2023-03-12T04:31:36;-3.30;99.90
73586;DHT22;61865;50.232;18.614;2023-03-12T04:33:58;-3.20;99.90
73586;DHT22;61865;50.232;18.614;2023-03-12T04:36:20;-3.20;99.90
73586;DHT22;61865;50.232;18.614;2023-03-12T04:38:43;-3.30;99.90
73586;DHT22;61865;50.232;18.614;2023-03-12T04:41:07;-3.20;99.90
73586;DHT22;61865;50.232;18.614;2023-03-12T04:43:31;-3.20;99.90
73586;DHT22;61865;50.232;18.614;2023-03-12T04:45:53;-3.20;99.90
73586;DHT22;61865;50.232;18.614;2023-03-12T04:48:14;-3.20;99.90
73586;DHT22;61865;50.232;18.614;2023-03-12T04:50:38;-3.30;99.90
73586;DHT22;61865;50.232;18.614;2023-03-12T04:52:59;-3.20;99.90
73586;DHT22;61865;50.232;18.614;2023-03-12T04:55:23;-3.20;99.90
73586;DHT22;61865;50.232;18.614;2023-03-12T04:57:45;-3.20;99.90
73586;DHT22;61865;50.232;18.614;2023-03-12T05:00:07;-3.10;99.90
73586;DHT22;61865;50.232;18.614;2023-03-12T05:02:32;-3.20;99.90
73586;DHT22;61865;50.232;18.614;2023-03-12T05:04:55;-3.10;99.90
73586;DHT22;61865;50.232;18.614;2023-03-12T05:07:17;-3.10;99.90
73586;DHT22;61865;50.232;18.614;2023-03-12T05:09:40;-3.10;99.90
73586;DHT22;61865;50.232;18.614;2023-03-12T05:12:05;-3.00;99.90
73586;DHT22;61865;50.232;18.614;2023-03-12T05:14:27;-3.00;99.90
73586;DHT22;61865;50.232;18.614;2023-03-12T05:16:49;-3.10;99.90
73586;DHT22;61865;50.232;18.614;2023-03-12T05:19:11;-3.00;99.90
73586;DHT22;61865;50.232;18.614;2023-03-12T05:21:33;-3.10;99.90
73586;DHT22;61865;50.232;18.614;2023-03-12T05:23:55;-3.10;99.90
73586;DHT22;61865;50.232;18.614;2023-03-12T05:26:18;-2.90;99.90
73586;DHT22;61865;50.232;18.614;2023-03-12T05:28:42;-2.80;99.90
73586;DHT22;61865;50.232;18.614;2023-03-12T05:31:07;-2.70;99.90
73586;DHT22;61865;50.232;18.614;2023-03-12T05:33:30;-2.60;99.90
73586;DHT22;61865;50.232;18.614;2023-03-12T05:35:52;-2.50;99.90
73586;DHT22;61865;50.232;18.614;2023-03-12T05:38:14;-2.30;99.90
73586;DHT22;61865;50.232;18.614;2023-03-12T05:40:35;-2.30;99.90
73586;DHT22;61865;50.232;18.614;2023-03-12T05:42:57;-2.20;99.90
73586;DHT22;61865;50.232;18.614;2023-03-12T05:45:21;-2.10;99.90
73586;DHT22;61865;50.232;18.614;2023-03-12T05:47:42;-2.10;99.90
73586;DHT22;61865;50.232;18.614;2023-03-12T05:50:05;-2.00;99.90
73586;DHT22;61865;50.232;18.614;2023-03-12T05:52:29;-2.00;99.90
73586;DHT22;61865;50.232;18.614;2023-03-12T05:54:51;-2.00;99.90
73586;DHT22;61865;50.232;18.614;2023-03-12T05:57:13;-2.00;99.90
73586;DHT22;61865;50.232;18.614;2023-03-12T05:59:35;-2.00;99.90
73586;DHT22;61865;50.232;18.614;2023-03-12T06:01:58;-2.00;99.90
73586;DHT22;61865;50.232;18.614;2023-03-12T06:04:20;-2.00;99.90
73586;DHT22;61865;50.232;18.614;2023-03-12T06:06:42;-1.90;99.90
73586;DHT22;61865;50.232;18.614;2023-03-12T06:09:04;-1.90;99.90
73586;DHT22;61865;50.232;18.614;2023-03-12T06:11:26;-1.80;99.90
73586;DHT22;61865;50.232;18.614;2023-03-12T06:13:48;-1.80;99.90
73586;DHT22;61865;50.232;18.614;2023-03-12T06:16:15;-1.70;99.90
73586;DHT22;61865;50.232;18.614;2023-03-12T06:18:39;-1.70;99.90
73586;DHT22;61865;50.232;18.614;2023-03-12T06:21:09;-1.70;99.90
73586;DHT22;61865;50.232;18.614;2023-03-12T06:23:31;-1.70;99.90
73586;DHT22;61865;50.232;18.614;2023-03-12T06:25:53;-1.70;99.90
73586;DHT22;61865;50.232;18.614;2023-03-12T06:28:15;-1.50;99.90
73586;DHT22;61865;50.232;18.614;2023-03-12T06:30:37;-1.40;99.90
73586;DHT22;61865;50.232;18.614;2023-03-12T06:32:59;-1.40;99.90
73586;DHT22;61865;50.232;18.614;2023-03-12T06:35:24;-1.30;99.90
73586;DHT22;61865;50.232;18.614;2023-03-12T06:37:46;-1.20;99.90
73586;DHT22;61865;50.232;18.614;2023-03-12T06:40:09;-1.00;99.90
73586;DHT22;61865;50.232;18.614;2023-03-12T06:42:32;-0.90;99.90
73586;DHT22;61865;50.232;18.614;2023-03-12T06:44:54;-0.70;99.90
73586;DHT22;61865;50.232;18.614;2023-03-12T06:47:16;-0.60;99.90
73586;DHT22;61865;50.232;18.614;2023-03-12T06:49:38;-0.50;99.90
73586;DHT22;61865;50.232;18.614;2023-03-12T06:52:01;-0.40;99.90
73586;DHT22;61865;50.232;18.614;2023-03-12T06:54:23;-0.40;99.90
73586;DHT22;61865;50.232;18.614;2023-03-12T06:56:45;-0.50;99.90
73586;DHT22;61865;50.232;18.614;2023-03-12T06:59:07;-0.50;99.90
73586;DHT22;61865;50.232;18.614;2023-03-12T07:01:29;-0.50;99.90
73586;DHT22;61865;50.232;18.614;2023-03-12T07:03:51;-0.60;99.90
73586;DHT22;61865;50.232;18.614;2023-03-12T07:06:14;-0.60;99.90
73586;DHT22;61865;50.232;18.614;2023-03-12T07:08:37;-0.70;99.90
73586;DHT22;61865;50.232;18.614;2023-03-12T07:10:59;-0.70;99.90
73586;DHT22;61865;50.232;18.614;2023-03-12T07:13:21;-0.70;99.90
73586;DHT22;61865;50.232;18.614;2023-03-12T07:15:43;-0.70;99.90
73586;DHT22;61865;50.232;18.614;2023-03-12T07:18:07;-0.70;99.90
73586;DHT22;61865;50.232;18.614;2023-03-12T07:20:29;-0.70;99.90
73586;DHT22;61865;50.232;18.614;2023-03-12T07:22:51;-0.60;99.90
73586;DHT22;61865;50.232;18.614;2023-03-12T07:25:14;-0.50;99.90
73586;DHT22;61865;50.232;18.614;2023-03-12T07:27:36;-0.50;99.90
73586;DHT22;61865;50.232;18.614;2023-03-12T07:29:58;-0.40;99.90
73586;DHT22;61865;50.232;18.614;2023-03-12T07:32:19;-0.30;99.90
73586;DHT22;61865;50.232;18.614;2023-03-12T07:34:41;-0.30;99.90
73586;DHT22;61865;50.232;18.614;2023-03-12T07:37:04;-0.20;99.90
73586;DHT22;61865;50.232;18.614;2023-03-12T07:39:26;-0.20;99.90
73586;DHT22;61865;50.232;18.614;2023-03-12T07:41:49;0.00;99.90
73586;DHT22;61865;50.232;18.614;2023-03-12T07:44:11;0.00;99.90
73586;DHT22;61865;50.232;18.614;2023-03-12T07:46:33;0.10;99.90
73586;DHT22;61865;50.232;18.614;2023-03-12T07:48:55;0.20;99.90
73586;DHT22;61865;50.232;18.614;2023-03-12T07:51:20;0.20;99.90
73586;DHT22;61865;50.232;18.614;2023-03-12T07:53:42;0.20;99.90
73586;DHT22;61865;50.232;18.614;2023-03-12T07:56:04;0.30;99.90
73586;DHT22;61865;50.232;18.614;2023-03-12T07:58:28;0.40;99.90
73586;DHT22;61865;50.232;18.614;2023-03-12T08:00:50;0.50;99.90
73586;DHT22;61865;50.232;18.614;2023-03-12T08:03:13;0.60;99.90
73586;DHT22;61865;50.232;18.614;2023-03-12T08:05:35;0.60;99.90
73586;DHT22;61865;50.232;18.614;2023-03-12T08:07:56;0.70;99.90
73586;DHT22;61865;50.232;18.614;2023-03-12T08:10:19;0.70;99.90
73586;DHT22;61865;50.232;18.614;2023-03-12T08:12:43;0.80;99.90
73586;DHT22;61865;50.232;18.614;2023-03-12T08:15:07;0.90;99.90
73586;DHT22;61865;50.232;18.614;2023-03-12T08:17:29;0.90;99.90
73586;DHT22;61865;50.232;18.614;2023-03-12T08:19:51;1.00;99.90
73586;DHT22;61865;50.232;18.614;2023-03-12T08:22:13;1.10;99.90
73586;DHT22;61865;50.232;18.614;2023-03-12T08:24:34;1.20;99.90
73586;DHT22;61865;50.232;18.614;2023-03-12T08:26:56;1.20;99.90
73586;DHT22;61865;50.232;18.614;2023-03-12T08:29:18;1.30;99.90
73586;DHT22;61865;50.232;18.614;2023-03-12T08:31:42;1.30;99.90
73586;DHT22;61865;50.232;18.614;2023-03-12T08:34:04;1.40;99.90
73586;DHT22;61865;50.232;18.614;2023-03-12T08:36:26;1.40;99.90
73586;DHT22;61865;50.232;18.614;2023-03-12T08:38:48;1.50;99.90
73586;DHT22;61865;50.232;18.614;2023-03-12T08:41:09;1.60;99.90
73586;DHT22;61865;50.232;18.614;2023-03-12T08:43:31;1.70;99.90
73586;DHT22;61865;50.232;18.614;2023-03-12T08:45:54;1.70;99.90
73586;DHT22;61865;50.232;18.614;2023-03-12T08:48:17;1.70;99.90
73586;DHT22;61865;50.232;18.614;2023-03-12T08:50:39;1.70;99.90
73586;DHT22;61865;50.232;18.614;2023-03-12T08:53:01;1.70;99.90
73586;DHT22;61865;50.232;18.614;2023-03-12T08:55:23;1.80;99.90
73586;DHT22;61865;50.232;18.614;2023-03-12T08:57:45;1.80;99.90
73586;DHT22;61865;50.232;18.614;2023-03-12T09:00:08;1.90;99.90
73586;DHT22;61865;50.232;18.614;2023-03-12T09:02:34;1.90;99.90
73586;DHT22;61865;50.232;18.614;2023-03-12T09:04:57;1.90;99.90
73586;DHT22;61865;50.232;18.614;2023-03-12T09:07:19;1.90;99.90
73586;DHT22;61865;50.232;18.614;2023-03-12T09:09:42;2.00;99.90
73586;DHT22;61865;50.232;18.614;2023-03-12T09:12:04;2.00;99.90
73586;DHT22;61865;50.232;18.614;2023-03-12T09:14:26;2.10;99.90
73586;DHT22;61865;50.232;18.614;2023-03-12T09:16:48;2.10;99.90
73586;DHT22;61865;50.232;18.614;2023-03-12T09:19:10;2.10;99.90
73586;DHT22;61865;50.232;18.614;2023-03-12T09:21:33;2.20;99.90
73586;DHT22;61865;50.232;18.614;2023-03-12T09:23:55;2.30;99.90
73586;DHT22;61865;50.232;18.614;2023-03-12T09:26:20;2.40;99.90
73586;DHT22;61865;50.232;18.614;2023-03-12T09:28:42;2.40;99.90
73586;DHT22;61865;50.232;18.614;2023-03-12T09:31:05;2.40;99.90
73586;DHT22;61865;50.232;18.614;2023-03-12T09:33:27;2.50;99.90
73586;DHT22;61865;50.232;18.614;2023-03-12T09:35:55;2.60;99.90
73586;DHT22;61865;50.232;18.614;2023-03-12T09:38:18;2.80;99.90
73586;DHT22;61865;50.232;18.614;2023-03-12T09:40:43;2.70;99.90
73586;DHT22;61865;50.232;18.614;2023-03-12T09:43:10;2.90;99.90
73586;DHT22;61865;50.232;18.614;2023-03-12T09:45:37;2.80;99.90
73586;DHT22;61865;50.232;18.614;2023-03-12T09:48:02;3.00;99.90
73586;DHT22;61865;50.232;18.614;2023-03-12T09:50:26;3.20;99.90
73586;DHT22;61865;50.232;18.614;2023-03-12T09:52:54;3.40;99.90
73586;DHT22;61865;50.232;18.614;2023-03-12T09:55:20;3.60;99.90
73586;DHT22;61865;50.232;18.614;2023-03-12T09:57:42;3.70;99.90
73586;DHT22;61865;50.232;18.614;2023-03-12T10:00:10;3.80;99.90
73586;DHT22;61865;50.232;18.614;2023-03-12T10:02:47;4.00;99.90
73586;DHT22;61865;50.232;18.614;2023-03-12T10:05:17;3.90;99.90
73586;DHT22;61865;50.232;18.614;2023-03-12T10:07:44;3.90;99.90
73586;DHT22;61865;50.232;18.614;2023-03-12T10:10:38;3.90;99.90
73586;DHT22;61865;50.232;18.614;2023-03-12T10:13:16;3.70;99.90
73586;DHT22;61865;50.232;18.614;2023-03-12T10:15:46;3.50;99.90
73586;DHT22;61865;50.232;18.614;2023-03-12T10:18:20;3.60;99.90
73586;DHT22;61865;50.232;18.614;2023-03-12T10:20:53;3.70;99.90
73586;DHT22;61865;50.232;18.614;2023-03-12T10:23:21;3.80;99.90
73586;DHT22;61865;50.232;18.614;2023-03-12T10:25:54;3.90;99.90
73586;DHT22;61865;50.232;18.614;2023-03-12T10:28:19;4.10;99.90
73586;DHT22;61865;50.232;18.614;2023-03-12T10:30:52;4.10;99.90
73586;DHT22;61865;50.232;18.614;2023-03-12T10:33:17;4.20;99.90
73586;DHT22;61865;50.232;18.614;2023-03-12T10:35:39;4.20;99.90
73586;DHT22;61865;50.232;18.614;2023-03-12T10:38:03;4.20;99.90
73586;DHT22;61865;50.232;18.614;2023-03-12T10:40:26;4.30;99.90
73586;DHT22;61865;50.232;18.614;2023-03-12T10:42:51;4.50;89.50
73586;DHT22;61865;50.232;18.614;2023-03-12T10:45:23;4.50;93.50
73586;DHT22;61865;50.232;18.614;2023-03-12T10:47:49;4.60;99.90
73586;DHT22;61865;50.232;18.614;2023-03-12T10:50:15;4.50;99.90
73586;DHT22;61865;50.232;18.614;2023-03-12T10:52:38;4.70;94.30
73586;DHT22;61865;50.232;18.614;2023-03-12T10:55:11;4.80;95.00
73586;DHT22;61865;50.232;18.614;2023-03-12T10:57:39;4.60;99.50
73586;DHT22;61865;50.232;18.614;2023-03-12T11:00:07;4.60;86.80
73586;DHT22;61865;50.232;18.614;2023-03-12T11:02:33;4.40;98.90
73586;DHT22;61865;50.232;18.614;2023-03-12T11:04:57;4.60;96.30
73586;DHT22;61865;50.232;18.614;2023-03-12T11:07:22;4.60;92.70
73586;DHT22;61865;50.232;18.614;2023-03-12T11:10:10;4.80;99.90
73586;DHT22;61865;50.232;18.614;2023-03-12T11:12:33;5.00;86.80
73586;DHT22;61865;50.232;18.614;2023-03-12T11:14:56;5.00;97.30
73586;DHT22;61865;50.232;18.614;2023-03-12T11:17:23;5.00;98.00
73586;DHT22;61865;50.232;18.614;2023-03-12T11:19:45;5.10;98.10
73586;DHT22;61865;50.232;18.614;2023-03-12T11:22:09;5.20;97.10
73586;DHT22;61865;50.232;18.614;2023-03-12T11:24:32;5.30;81.10
73586;DHT22;61865;50.232;18.614;2023-03-12T11:26:58;5.30;94.80
73586;DHT22;61865;50.232;18.614;2023-03-12T11:29:26;5.50;99.60
73586;DHT22;61865;50.232;18.614;2023-03-12T11:31:56;5.40;80.90
73586;DHT22;61865;50.232;18.614;2023-03-12T11:34:23;5.20;97.30
73586;DHT22;61865;50.232;18.614;2023-03-12T11:36:52;4.90;96.10
73586;DHT22;61865;50.232;18.614;2023-03-12T11:39:23;4.80;96.00
73586;DHT22;61865;50.232;18.614;2023-03-12T11:42:10;5.00;95.10
73586;DHT22;61865;50.232;18.614;2023-03-12T11:44:41;5.20;98.40
73586;DHT22;61865;50.232;18.614;2023-03-12T11:47:22;5.30;96.20
73586;DHT22;61865;50.232;18.614;2023-03-12T11:50:12;5.10;74.70
73586;DHT22;61865;50.232;18.614;2023-03-12T11:52:43;4.90;78.70
73586;DHT22;61865;50.232;18.614;2023-03-12T11:55:16;5.10;94.60
73586;DHT22;61865;50.232;18.614;2023-03-12T11:57:58;5.20;89.10
73586;DHT22;61865;50.232;18.614;2023-03-12T12:00:27;5.30;77.60
73586;DHT22;61865;50.232;18.614;2023-03-12T12:03:19;5.00;84.40
73586;DHT22;61865;50.232;18.614;2023-03-12T12:05:56;4.80;84.30
73586;DHT22;61865;50.232;18.614;2023-03-12T12:11:13;4.90;85.40
73586;DHT22;61865;50.232;18.614;2023-03-12T12:13:41;5.10;85.00
73586;DHT22;61865;50.232;18.614;2023-03-12T12:16:19;5.20;87.30
73586;DHT22;61865;50.232;18.614;2023-03-12T12:18:52;5.20;87.20
73586;DHT22;61865;50.232;18.614;2023-03-12T12:21:29;5.20;83.90
73586;DHT22;61865;50.232;18.614;2023-03-12T12:24:01;4.80;79.50
73586;DHT22;61865;50.232;18.614;2023-03-12T12:26:31;4.80;81.60
73586;DHT22;61865;50.232;18.614;2023-03-12T12:29:11;4.80;76.80
73586;DHT22;61865;50.232;18.614;2023-03-12T12:31:41;4.70;74.60
73586;DHT22;61865;50.232;18.614;2023-03-12T12:37:21;4.60;75.30
73586;DHT22;61865;50.232;18.614;2023-03-12T12:39:49;4.70;81.60
73586;DHT22;61865;50.232;18.614;2023-03-12T12:42:17;4.80;73.60
73586;DHT22;61865;50.232;18.614;2023-03-12T12:44:45;4.90;90.10
73586;DHT22;61865;50.232;18.614;2023-03-12T12:47:12;5.00;79.00
73586;DHT22;61865;50.232;18.614;2023-03-12T12:49:42;5.00;83.70
73586;DHT22;61865;50.232;18.614;2023-03-12T12:52:09;5.00;84.80
73586;DHT22;61865;50.232;18.614;2023-03-12T12:54:39;5.10;77.60
73586;DHT22;61865;50.232;18.614;2023-03-12T12:57:09;5.10;73.30
73586;DHT22;61865;50.232;18.614;2023-03-12T12:59:36;5.10;82.50
73586;DHT22;61865;50.232;18.614;2023-03-12T13:02:01;5.10;83.60
73586;DHT22;61865;50.232;18.614;2023-03-12T13:04:25;5.20;78.40
73586;DHT22;61865;50.232;18.614;2023-03-12T13:06:58;5.30;82.40
73586;DHT22;61865;50.232;18.614;2023-03-12T13:09:34;5.30;71.00
73586;DHT22;61865;50.232;18.614;2023-03-12T13:11:56;5.50;77.70
73586;DHT22;61865;50.232;18.614;2023-03-12T13:14:35;5.50;67.50
73586;DHT22;61865;50.232;18.614;2023-03-12T13:17:18;5.40;72.80
73586;DHT22;61865;50.232;18.614;2023-03-12T13:19:45;5.70;75.90
73586;DHT22;61865;50.232;18.614;2023-03-12T13:22:14;5.80;69.10
73586;DHT22;61865;50.232;18.614;2023-03-12T13:24:45;6.00;69.40
73586;DHT22;61865;50.232;18.614;2023-03-12T13:27:16;6.10;67.50
73586;DHT22;61865;50.232;18.614;2023-03-12T13:29:40;6.10;66.20
73586;DHT22;61865;50.232;18.614;2023-03-12T13:32:03;6.00;68.50
73586;DHT22;61865;50.232;18.614;2023-03-12T13:37:28;6.10;69.20
73586;DHT22;61865;50.232;18.614;2023-03-12T13:39:51;6.20;66.00
73586;DHT22;61865;50.232;18.614;2023-03-12T13:42:35;6.30;65.40
73586;DHT22;61865;50.232;18.614;2023-03-12T13:47:47;6.40;66.80
73586;DHT22;61865;50.232;18.614;2023-03-12T13:50:13;6.50;65.60
73586;DHT22;61865;50.232;18.614;2023-03-12T13:52:40;6.50;66.70
73586;DHT22;61865;50.232;18.614;2023-03-12T13:55:15;6.60;64.10
73586;DHT22;61865;50.232;18.614;2023-03-12T13:57:43;6.60;67.10
73586;DHT22;61865;50.232;18.614;2023-03-12T14:00:13;6.60;76.20
73586;DHT22;61865;50.232;18.614;2023-03-12T14:02:42;6.80;70.20
73586;DHT22;61865;50.232;18.614;2023-03-12T14:05:07;6.80;71.50
73586;DHT22;61865;50.232;18.614;2023-03-12T14:10:42;6.90;70.20
73586;DHT22;61865;50.232;18.614;2023-03-12T14:13:17;7.00;68.70
73586;DHT22;61865;50.232;18.614;2023-03-12T14:15:48;7.00;70.50
73586;DHT22;61865;50.232;18.614;2023-03-12T14:18:15;7.00;77.20
73586;DHT22;61865;50.232;18.614;2023-03-12T14:20:38;7.00;70.40
73586;DHT22;61865;50.232;18.614;2023-03-12T14:23:04;6.90;74.10
73586;DHT22;61865;50.232;18.614;2023-03-12T14:25:38;6.90;74.30
73586;DHT22;61865;50.232;18.614;2023-03-12T14:28:02;6.70;69.10
73586;DHT22;61865;50.232;18.614;2023-03-12T14:30:31;6.30;67.40
73586;DHT22;61865;50.232;18.614;2023-03-12T14:32:58;6.30;67.00
73586;DHT22;61865;50.232;18.614;2023-03-12T14:35:24;6.30;71.70
73586;DHT22;61865;50.232;18.614;2023-03-12T14:37:53;6.40;73.80
73586;DHT22;61865;50.232;18.614;2023-03-12T14:40:21;6.50;72.40
73586;DHT22;61865;50.232;18.614;2023-03-12T14:42:45;6.60;71.30
73586;DHT22;61865;50.232;18.614;2023-03-12T14:45:11;6.60;74.10
73586;DHT22;61865;50.232;18.614;2023-03-12T14:47:38;6.60;76.00
73586;DHT22;61865;50.232;18.614;2023-03-12T14:50:00;6.70;75.60
73586;DHT22;61865;50.232;18.614;2023-03-12T14:52:26;6.80;71.70
73586;DHT22;61865;50.232;18.614;2023-03-12T14:54:53;6.90;71.60
73586;DHT22;61865;50.232;18.614;2023-03-12T14:57:19;7.00;75.20
73586;DHT22;61865;50.232;18.614;2023-03-12T14:59:51;6.90;63.70
73586;DHT22;61865;50.232;18.614;2023-03-12T15:02:16;6.70;61.50
73586;DHT22;61865;50.232;18.614;2023-03-12T15:04:39;6.70;62.60
73586;DHT22;61865;50.232;18.614;2023-03-12T15:07:04;6.60;60.40
73586;DHT22;61865;50.232;18.614;2023-03-12T15:09:28;6.40;59.50
73586;DHT22;61865;50.232;18.614;2023-03-12T15:11:53;6.30;58.60
73586;DHT22;61865;50.232;18.614;2023-03-12T15:14:16;6.10;58.80
73586;DHT22;61865;50.232;18.614;2023-03-12T15:16:39;6.00;59.00
73586;DHT22;61865;50.232;18.614;2023-03-12T15:19:02;5.90;58.50
73586;DHT22;61865;50.232;18.614;2023-03-12T15:21:24;5.60;57.90
73586;DHT22;61865;50.232;18.614;2023-03-12T15:23:47;5.50;58.60